North Island Princes — VDBD — position and weather

sailwx.info

Track history (hours):
 
Tides and Currents Weather Stations Pressure Air Temp Water Temp Dewpoint Dewpoint Depression Visibility Wind Speed Wind Dir Waves Ship Positions

North Island Princes

Last reported at 2017-Oct-17 09:59 UTC. Time now 2017-Oct-17 10:12 UTC.
Position N 49°48' W 124°37'.

Length 66 m; draft 3 m.

Type: Passenger vessel. MMSI: 316001242.

Date/timePositionNaut miles runAvg speedWind from/ knotsBaromVisibWave heightAir tempDewpointWater temp
2017-Oct-17 09:59N 49°48' W 124°37'0 0.0
2017-Oct-17 09:23N 49°48' W 124°37'0 0.0
2017-Oct-17 08:59N 49°48' W 124°37'0 0.0
2017-Oct-17 08:26N 49°48' W 124°37'0 0.0
2017-Oct-17 07:59N 49°48' W 124°37'0 0.0
2017-Oct-17 07:26N 49°48' W 124°37'0 0.0
2017-Oct-17 06:56N 49°48' W 124°37'0 0.0
2017-Oct-17 06:29N 49°48' W 124°37'0 0.0
2017-Oct-17 05:59N 49°48' W 124°37'0 0.1
2017-Oct-17 05:29N 49°48' W 124°37'0 0.1
2017-Oct-17 04:59N 49°48' W 124°37'3 7.2
2017-Oct-17 04:30N 49°49' W 124°32'0 0.5
2017-Oct-17 04:01N 49°49' W 124°33'3 6.4
2017-Oct-17 03:30N 49°48' W 124°37'0 0.0
2017-Oct-17 03:00N 49°48' W 124°37'0 0.0
2017-Oct-17 02:30N 49°48' W 124°37'0 0.0
2017-Oct-17 02:00N 49°48' W 124°37'1 2.3
2017-Oct-17 01:30N 49°49' W 124°36'3 6.2
2017-Oct-17 01:00N 49°50' W 124°32'1 2.7
2017-Oct-17 00:30N 49°49' W 124°33'3 6.1
2017-Oct-17 00:00N 49°48' W 124°37'0 0.0
2017-Oct-16 23:30N 49°48' W 124°37'3 6.5
2017-Oct-16 23:00N 49°49' W 124°33'1 1.6
2017-Oct-16 22:30N 49°50' W 124°32'4 7.6
2017-Oct-16 22:01N 49°48' W 124°37'0 0.0
2017-Oct-16 21:30N 49°48' W 124°37'0 0.1
2017-Oct-16 20:58N 49°48' W 124°37'0 0.0
2017-Oct-16 20:28N 49°48' W 124°37'0 0.0
2017-Oct-16 19:58N 49°48' W 124°37'2 4.7
2017-Oct-16 19:30N 49°49' W 124°35'2 4.1
2017-Oct-16 19:00N 49°50' W 124°32'4 7.3
2017-Oct-16 18:30N 49°48' W 124°37'1 1.1
2017-Oct-16 18:00N 49°49' W 124°36'3 6.2
2017-Oct-16 17:30N 49°50' W 124°32'0 0.0
2017-Oct-16 17:00N 49°50' W 124°32'3 5.6
2017-Oct-16 16:30N 49°49' W 124°36'1 1.6
2017-Oct-16 16:01N 49°48' W 124°37'4 7.1
2017-Oct-16 15:30N 49°50' W 124°32'3 5.4
2017-Oct-16 15:00N 49°49' W 124°35'1 1.4
2017-Oct-16 14:00N 49°49' W 124°33'1 2.7
2017-Oct-16 13:31N 49°50' W 124°32'4 8.2
2017-Oct-16 13:00N 49°48' W 124°37'0 0.2
2017-Oct-16 12:30N 49°48' W 124°37'0 0.0
2017-Oct-16 12:00N 49°48' W 124°37'0 0.0
2017-Oct-16 11:30N 49°48' W 124°37'0 0.0
2017-Oct-16 11:00N 49°48' W 124°37'0 0.0
2017-Oct-16 10:30N 49°48' W 124°37'0 0.0
2017-Oct-16 10:00N 49°48' W 124°37'0 0.0
2017-Oct-16 09:30N 49°48' W 124°37'0 0.0
2017-Oct-16 09:00N 49°48' W 124°37'0 0.0
2017-Oct-16 08:30N 49°48' W 124°37'0 0.0
2017-Oct-16 08:00N 49°48' W 124°37'0 0.0
2017-Oct-16 07:30N 49°48' W 124°37'0 0.0
2017-Oct-16 07:00N 49°48' W 124°37'0 0.0
2017-Oct-16 06:24N 49°48' W 124°37'0 0.0
2017-Oct-16 06:00N 49°48' W 124°37'0 0.1
2017-Oct-16 05:30N 49°48' W 124°37'2 4.1
2017-Oct-16 05:00N 49°49' W 124°35'2 4.4
2017-Oct-16 04:30N 49°50' W 124°32'4 8.3
2017-Oct-16 04:01N 49°48' W 124°37'2 3.6
2017-Oct-16 03:31N 49°49' W 124°36'3 5.1
2017-Oct-16 03:00N 49°50' W 124°32'4 7.6
2017-Oct-16 02:30N 49°48' W 124°37'0 0.7
2017-Oct-16 02:00N 49°49' W 124°37'3 6.8
2017-Oct-16 01:30N 49°50' W 124°32'0 0.0
2017-Oct-16 00:55N 49°50' W 124°32'1 3.3
2017-Oct-16 00:31N 49°50' W 124°34'3 6.1
2017-Oct-16 00:00N 49°48' W 124°37'3 5.9
2017-Oct-15 23:30N 49°50' W 124°34'1 2.9
2017-Oct-15 23:00N 49°50' W 124°32'4 8.2
2017-Oct-15 22:30N 49°48' W 124°37'0 0.0
2017-Oct-15 21:58N 49°48' W 124°37'0 0.0
2017-Oct-15 21:28N 49°48' W 124°37'0 0.0
2017-Oct-15 20:58N 49°48' W 124°37'0 0.0
2017-Oct-15 20:25N 49°48' W 124°37'0 0.1
2017-Oct-15 19:58N 49°48' W 124°37'2 3.9
2017-Oct-15 19:30N 49°49' W 124°35'3 5.1
2017-Oct-15 19:01N 49°50' W 124°32'4 7.4
2017-Oct-15 18:31N 49°48' W 124°37'1 1.4
2017-Oct-15 18:01N 49°48' W 124°37'0 0.1
2017-Oct-15 17:30N 49°48' W 124°37'0 0.3
2017-Oct-15 17:00N 49°48' W 124°37'4 8.1
2017-Oct-15 16:30N 49°50' W 124°32'2 3.6
2017-Oct-15 16:01N 49°50' W 124°35'3 5.1
2017-Oct-15 15:30N 49°48' W 124°37'0 0.0
2017-Oct-15 15:00N 49°48' W 124°37'3 2.6
2017-Oct-15 14:00N 49°49' W 124°34'2 3.2
2017-Oct-15 13:31N 49°50' W 124°32'4 8.3
2017-Oct-15 13:00N 49°48' W 124°37'0 0.2
2017-Oct-15 12:30N 49°48' W 124°37'0 0.0
2017-Oct-15 11:59N 49°48' W 124°37'0 0.0
2017-Oct-15 11:26N 49°48' W 124°37'0 0.0
2017-Oct-15 10:59N 49°48' W 124°37'0 0.0
2017-Oct-15 10:29N 49°48' W 124°37'0 0.0
2017-Oct-15 09:59N 49°48' W 124°37'0 0.0
2017-Oct-15 09:29N 49°48' W 124°37'0 0.0
2017-Oct-15 08:59N 49°48' W 124°37'0 0.0
2017-Oct-15 08:29N 49°48' W 124°37'0 0.0
2017-Oct-15 07:59N 49°48' W 124°37'0 0.0
2017-Oct-15 07:29N 49°48' W 124°37'0 0.0
2017-Oct-15 06:53N 49°48' W 124°37'0 0.0
2017-Oct-15 06:29N 49°48' W 124°37'0 0.0
2017-Oct-15 05:59N 49°48' W 124°37'0 0.0
2017-Oct-15 05:29N 49°48' W 124°37'2 3.3
2017-Oct-15 05:00N 49°49' W 124°36'3 5.4
2017-Oct-15 04:30N 49°50' W 124°32'4 8.3
2017-Oct-15 04:00N 49°48' W 124°37'2 4.3
2017-Oct-15 03:30N 49°49' W 124°34'2 4.1
2017-Oct-15 03:01N 49°50' W 124°32'4 7.6
2017-Oct-15 02:30N 49°48' W 124°37'0 1.0
2017-Oct-15 02:00N 49°49' W 124°36'3 6.7
2017-Oct-15 01:30N 49°50' W 124°32'0 0.0
2017-Oct-15 01:00N 49°50' W 124°32'1 2.8
2017-Oct-15 00:30N 49°50' W 124°34'3 5.5
2017-Oct-14 23:58N 49°48' W 124°37'2 3.6
2017-Oct-14 23:30N 49°49' W 124°35'3 5.1
2017-Oct-14 23:00N 49°50' W 124°32'4 8.4
2017-Oct-14 22:30N 49°48' W 124°37'0 0.0
2017-Oct-14 22:00N 49°48' W 124°37'0 0.0
2017-Oct-14 21:30N 49°48' W 124°37'0 0.0
2017-Oct-14 21:00N 49°48' W 124°37'0 0.0
2017-Oct-14 20:30N 49°48' W 124°37'0 0.1
2017-Oct-14 20:00N 49°48' W 124°37'2 3.1
2017-Oct-14 19:30N 49°49' W 124°36'3 5.6
2017-Oct-14 19:00N 49°50' W 124°32'4 7.2
2017-Oct-14 18:30N 49°48' W 124°37'1 1.7
2017-Oct-14 18:00N 49°48' W 124°37'0 0.1
2017-Oct-14 17:31N 49°48' W 124°37'0 0.2
2017-Oct-14 17:01N 49°48' W 124°37'4 8.1
2017-Oct-14 16:30N 49°50' W 124°32'2 4.0
2017-Oct-14 16:00N 49°49' W 124°35'2 4.6
2017-Oct-14 15:31N 49°48' W 124°37'0 0.0
2017-Oct-14 15:00N 49°48' W 124°37'0 0.1
2017-Oct-14 14:30N 49°48' W 124°37'3 5.9
2017-Oct-14 14:00N 49°50' W 124°34'1 2.5
2017-Oct-14 13:31N 49°50' W 124°32'4 8.3
2017-Oct-14 13:01N 49°48' W 124°37'0 0.1
2017-Oct-14 12:30N 49°48' W 124°37'0 0.1
2017-Oct-14 11:57N 49°48' W 124°37'0 0.0
2017-Oct-14 11:27N 49°48' W 124°37'0 0.0
2017-Oct-14 11:00N 49°48' W 124°37'0 0.0
2017-Oct-14 10:30N 49°48' W 124°37'0 0.0
2017-Oct-14 10:00N 49°48' W 124°37'0 0.0
2017-Oct-14 09:30N 49°48' W 124°37'0 0.0
2017-Oct-14 08:57N 49°48' W 124°37'0 0.0
2017-Oct-14 08:30N 49°48' W 124°37'0 0.0
2017-Oct-14 08:00N 49°48' W 124°37'0 0.0
2017-Oct-14 07:27N 49°48' W 124°37'0 0.0
2017-Oct-14 07:00N 49°48' W 124°37'0 0.1
2017-Oct-14 06:30N 49°48' W 124°37'0 0.1
2017-Oct-14 06:00N 49°48' W 124°37'0 0.0
2017-Oct-14 05:30N 49°48' W 124°37'0 0.0
2017-Oct-14 05:00N 49°48' W 124°37'2 4.8
2017-Oct-14 04:30N 49°49' W 124°34'1 2.9
2017-Oct-14 04:00N 49°50' W 124°33'4 7.6
2017-Oct-14 03:30N 49°48' W 124°37'1 1.8
2017-Oct-14 03:01N 49°49' W 124°37'3 6.9
2017-Oct-14 02:31N 49°50' W 124°32'3 6.2
2017-Oct-14 02:01N 49°49' W 124°36'1 2.5
2017-Oct-14 01:30N 49°48' W 124°37'4 6.6
2017-Oct-14 00:52N 49°50' W 124°32'1 2.2
2017-Oct-14 00:29N 49°50' W 124°33'3 6.9
2017-Oct-13 23:59N 49°48' W 124°37'0 0.0
2017-Oct-13 23:20N 49°48' W 124°37'2 5.8
2017-Oct-13 23:00N 49°49' W 124°35'2 4.6
2017-Oct-13 22:30N 49°50' W 124°32'4 8.3
2017-Oct-13 22:01N 49°48' W 124°37'0 0.2
2017-Oct-13 21:30N 49°48' W 124°37'0 0.0
2017-Oct-13 21:00N 49°48' W 124°37'0 0.1
2017-Oct-13 20:27N 49°48' W 124°37'0 0.1
2017-Oct-13 20:00N 49°48' W 124°37'2 3.4
2017-Oct-13 19:31N 49°49' W 124°35'3 5.1
2017-Oct-13 19:00N 49°50' W 124°32'4 7.6
2017-Oct-13 18:31N 49°48' W 124°37'0 0.2
2017-Oct-13 18:00N 49°48' W 124°37'4 7.4
2017-Oct-13 17:30N 49°50' W 124°32'0 0.0
2017-Oct-13 17:00N 49°50' W 124°32'3 6.2
2017-Oct-13 16:30N 49°49' W 124°36'1 2.1
2017-Oct-13 16:01N 49°48' W 124°37'4 8.0
2017-Oct-13 15:30N 49°50' W 124°32'3 6.1
2017-Oct-13 15:00N 49°49' W 124°36'1 2.5
2017-Oct-13 14:30N 49°48' W 124°37'2 5.0
2017-Oct-13 14:00N 49°49' W 124°34'2 3.5
2017-Oct-13 13:31N 49°50' W 124°32'4 8.2
2017-Oct-13 13:01N 49°48' W 124°37'0 0.2
2017-Oct-13 12:30N 49°48' W 124°37'0 0.0
2017-Oct-13 12:00N 49°48' W 124°37'0 0.0
2017-Oct-13 11:30N 49°48' W 124°37'0 0.0
2017-Oct-13 11:00N 49°48' W 124°37'0 0.0
2017-Oct-13 10:30N 49°48' W 124°37'0 0.0
2017-Oct-13 10:00N 49°48' W 124°37'0 0.0
2017-Oct-13 09:27N 49°48' W 124°37'0 0.0
2017-Oct-13 09:00N 49°48' W 124°37'0 0.0
2017-Oct-13 08:27N 49°48' W 124°37'0 0.0
2017-Oct-13 07:57N 49°48' W 124°37'0 0.0
2017-Oct-13 07:30N 49°48' W 124°37'0 0.1
2017-Oct-13 07:00N 49°48' W 124°37'0 0.1
2017-Oct-13 06:30N 49°48' W 124°37'0 0.0
2017-Oct-13 06:00N 49°48' W 124°37'0 0.1
2017-Oct-13 05:30N 49°48' W 124°37'0 0.1
2017-Oct-13 05:00N 49°48' W 124°37'3 6.3
2017-Oct-13 04:30N 49°50' W 124°33'0 0.5
2017-Oct-13 04:00N 49°50' W 124°34'3 5.8
2017-Oct-13 03:30N 49°48' W 124°37'1 1.9
2017-Oct-13 03:00N 49°49' W 124°36'3 6.7
2017-Oct-13 02:30N 49°50' W 124°32'3 6.2
2017-Oct-13 02:00N 49°49' W 124°36'1 2.5
2017-Oct-13 01:30N 49°48' W 124°37'4 8.4
2017-Oct-13 01:01N 49°50' W 124°32'0 0.6
2017-Oct-13 00:30N 49°50' W 124°32'4 7.9
2017-Oct-13 00:01N 49°48' W 124°37'0 0.0
2017-Oct-12 23:28N 49°48' W 124°37'2 4.1
2017-Oct-12 23:00N 49°49' W 124°35'2 4.8
2017-Oct-12 22:30N 49°50' W 124°32'4 8.3
2017-Oct-12 22:00N 49°48' W 124°37'0 0.0
2017-Oct-12 21:25N 49°48' W 124°37'0 0.0
2017-Oct-12 20:58N 49°48' W 124°37'0 0.0
2017-Oct-12 20:25N 49°48' W 124°37'0 0.0
2017-Oct-12 19:55N 49°48' W 124°37'2 6.1
2017-Oct-12 19:30N 49°49' W 124°34'2 3.5
2017-Oct-12 19:01N 49°50' W 124°32'4 7.5
2017-Oct-12 18:31N 49°48' W 124°37'1 1.1
2017-Oct-12 18:00N 49°49' W 124°36'3 6.5
2017-Oct-12 17:30N 49°50' W 124°32'0 0.1
2017-Oct-12 17:00N 49°50' W 124°32'4 8.3
2017-Oct-12 16:30N 49°48' W 124°37'0 0.1
2017-Oct-12 16:01N 49°48' W 124°37'4 8.2
2017-Oct-12 15:30N 49°50' W 124°32'3 5.7
2017-Oct-12 15:00N 49°49' W 124°36'2 3.1
2017-Oct-12 14:30N 49°48' W 124°37'2 4.8
2017-Oct-12 14:00N 49°49' W 124°34'2 3.6
2017-Oct-12 13:30N 49°50' W 124°32'4 8.3
2017-Oct-12 13:00N 49°48' W 124°37'0 0.0
2017-Oct-12 12:30N 49°48' W 124°37'0 0.0
2017-Oct-12 12:00N 49°48' W 124°37'0 0.0
2017-Oct-12 11:30N 49°48' W 124°37'0 0.0
2017-Oct-12 11:00N 49°48' W 124°37'0 0.0
2017-Oct-12 10:30N 49°48' W 124°37'0 0.0
2017-Oct-12 10:00N 49°48' W 124°37'0 0.0
2017-Oct-12 09:30N 49°48' W 124°37'0 0.0
2017-Oct-12 09:00N 49°48' W 124°37'0 0.0
2017-Oct-12 08:30N 49°48' W 124°37'0 0.0
2017-Oct-12 08:00N 49°48' W 124°37'0 0.0
2017-Oct-12 07:30N 49°48' W 124°37'0 0.0
2017-Oct-12 07:00N 49°48' W 124°37'0 0.0
2017-Oct-12 06:30N 49°48' W 124°37'0 0.0
2017-Oct-12 06:00N 49°48' W 124°37'0 0.1
2017-Oct-12 05:30N 49°48' W 124°37'0 0.1
2017-Oct-12 05:00N 49°48' W 124°37'3 6.1
2017-Oct-12 04:30N 49°50' W 124°33'1 1.4
2017-Oct-12 04:00N 49°50' W 124°33'4 7.1
2017-Oct-12 03:29N 49°48' W 124°37'1 1.8
2017-Oct-12 03:00N 49°49' W 124°37'4 7.1
2017-Oct-12 02:30N 49°50' W 124°32'3 6.3
2017-Oct-12 02:00N 49°49' W 124°36'1 2.4
2017-Oct-12 01:30N 49°48' W 124°37'4 8.4
2017-Oct-12 01:00N 49°50' W 124°32'1 1.1
2017-Oct-12 00:30N 49°50' W 124°33'4 7.4
2017-Oct-12 00:00N 49°48' W 124°37'0 0.0
2017-Oct-11 23:29N 49°48' W 124°37'2 3.8
2017-Oct-11 23:00N 49°49' W 124°35'2 4.9
2017-Oct-11 22:30N 49°50' W 124°32'4 8.3
2017-Oct-11 22:00N 49°48' W 124°37'0 0.0
2017-Oct-11 21:29N 49°48' W 124°37'0 0.0
2017-Oct-11 20:59N 49°48' W 124°37'0 0.1
2017-Oct-11 20:29N 49°48' W 124°37'0 0.0
2017-Oct-11 19:59N 49°48' W 124°37'3 5.6
2017-Oct-11 19:30N 49°49' W 124°34'2 3.3
2017-Oct-11 19:00N 49°50' W 124°32'4 8.2
2017-Oct-11 18:30N 49°48' W 124°37'0 0.0
2017-Oct-11 18:00N 49°48' W 124°37'2 3.4
2017-Oct-11 17:30N 49°49' W 124°35'3 5.1
2017-Oct-11 17:00N 49°50' W 124°32'4 0.2
2017-Oct-11 00:01N 49°48' W 124°37'0 0.0
2017-Oct-10 23:30N 49°48' W 124°37'2 4.4
2017-Oct-10 23:00N 49°49' W 124°34'2 4.1
2017-Oct-10 22:30N 49°50' W 124°32'4 8.3
2017-Oct-10 22:00N 49°48' W 124°37'0 0.0
2017-Oct-10 21:30N 49°48' W 124°37'0 0.0
2017-Oct-10 21:00N 49°48' W 124°37'0 0.1
2017-Oct-10 20:27N 49°48' W 124°37'0 0.1
2017-Oct-10 20:00N 49°48' W 124°37'2 3.4
2017-Oct-10 19:31N 49°49' W 124°35'3 5.1
2017-Oct-10 19:00N 49°50' W 124°32'4 7.6
2017-Oct-10 18:31N 49°48' W 124°37'0 0.2
2017-Oct-10 18:01N 49°48' W 124°37'4 7.3
2017-Oct-10 17:30N 49°50' W 124°32'0 0.0
2017-Oct-10 17:01N 49°50' W 124°32'3 6.1
2017-Oct-10 16:30N 49°49' W 124°36'1 2.0
2017-Oct-10 16:00N 49°48' W 124°37'4 7.9
2017-Oct-10 15:30N 49°50' W 124°32'3 6.0
2017-Oct-10 15:00N 49°49' W 124°36'1 1.3
2017-Oct-10 14:01N 49°49' W 124°34'2 3.4
2017-Oct-10 13:30N 49°50' W 124°32'4 8.3
2017-Oct-10 13:01N 49°48' W 124°37'0 0.1
2017-Oct-10 12:20N 49°48' W 124°37'0 0.0
2017-Oct-10 11:59N 49°48' W 124°37'0 0.0
2017-Oct-10 11:29N 49°48' W 124°37'0 0.0
2017-Oct-10 10:59N 49°48' W 124°37'0 0.0
2017-Oct-10 10:29N 49°48' W 124°37'0 0.0
2017-Oct-10 09:59N 49°48' W 124°37'0 0.0
2017-Oct-10 09:26N 49°48' W 124°37'0 0.1
2017-Oct-10 08:59N 49°48' W 124°37'0 0.1
2017-Oct-10 08:26N 49°48' W 124°37'0 0.0
2017-Oct-10 07:59N 49°48' W 124°37'0 0.0
2017-Oct-10 07:26N 49°48' W 124°37'0 0.0
2017-Oct-10 06:56N 49°48' W 124°37'0 0.0
2017-Oct-10 06:29N 49°48' W 124°37'0 0.0
2017-Oct-10 05:59N 49°48' W 124°37'0 0.0
2017-Oct-10 05:20N 49°48' W 124°37'0 0.0
2017-Oct-10 04:59N 49°48' W 124°37'2 4.5
2017-Oct-10 04:30N 49°49' W 124°35'2 4.3
2017-Oct-10 04:00N 49°50' W 124°32'4 8.3
2017-Oct-10 03:30N 49°48' W 124°37'1 1.1
2017-Oct-10 03:00N 49°48' W 124°37'4 7.7
2017-Oct-10 02:30N 49°50' W 124°32'3 5.3
2017-Oct-10 02:00N 49°49' W 124°36'2 3.5
2017-Oct-10 01:30N 49°48' W 124°37'4 8.0
2017-Oct-10 01:00N 49°50' W 124°32'0 0.4
2017-Oct-10 00:30N 49°50' W 124°32'4 8.3
2017-Oct-10 00:00N 49°48' W 124°37'0 0.0
2017-Oct-09 23:30N 49°48' W 124°37'1 2.8
2017-Oct-09 23:00N 49°49' W 124°36'3 6.0
2017-Oct-09 22:30N 49°50' W 124°32'4 8.3
2017-Oct-09 22:00N 49°48' W 124°37'0 0.1
2017-Oct-09 21:30N 49°48' W 124°37'0 0.0
2017-Oct-09 20:56N 49°48' W 124°37'0 0.1
2017-Oct-09 20:26N 49°48' W 124°37'0 0.0
2017-Oct-09 19:56N 49°48' W 124°37'2 5.9
2017-Oct-09 19:31N 49°49' W 124°34'2 3.2
2017-Oct-09 19:00N 49°50' W 124°32'3 6.8
2017-Oct-09 18:30N 49°48' W 124°37'0 0.2
2017-Oct-09 18:01N 49°48' W 124°37'4 7.2
2017-Oct-09 17:30N 49°50' W 124°32'0 0.0
2017-Oct-09 17:00N 49°50' W 124°32'3 5.7
2017-Oct-09 16:31N 49°49' W 124°36'1 2.8
2017-Oct-09 16:00N 49°48' W 124°37'4 8.2
2017-Oct-09 15:30N 49°50' W 124°32'3 5.4
2017-Oct-09 15:00N 49°49' W 124°36'2 3.2
2017-Oct-09 14:30N 49°48' W 124°37'2 4.6
2017-Oct-09 14:01N 49°49' W 124°35'2 3.9
2017-Oct-09 13:30N 49°50' W 124°32'4 8.3
2017-Oct-09 13:00N 49°48' W 124°37'0 0.2
2017-Oct-09 12:30N 49°48' W 124°37'0 0.0
2017-Oct-09 12:01N 49°48' W 124°37'0 0.0
2017-Oct-09 11:31N 49°48' W 124°37'0 0.0
2017-Oct-09 11:01N 49°48' W 124°37'0 0.0
2017-Oct-09 10:31N 49°48' W 124°37'0 0.0
2017-Oct-09 10:01N 49°48' W 124°37'0 0.0
2017-Oct-09 09:31N 49°48' W 124°37'0 0.0
2017-Oct-09 09:01N 49°48' W 124°37'0 0.0
2017-Oct-09 08:25N 49°48' W 124°37'0 0.0
2017-Oct-09 08:01N 49°48' W 124°37'0 0.0
2017-Oct-09 07:28N 49°48' W 124°37'0 0.1
2017-Oct-09 06:58N 49°48' W 124°37'0 0.0
2017-Oct-09 06:31N 49°48' W 124°37'0 0.0
2017-Oct-09 06:01N 49°48' W 124°37'0 0.1
2017-Oct-09 05:28N 49°48' W 124°37'1 2.6
2017-Oct-09 05:00N 49°49' W 124°36'3 6.4
2017-Oct-09 04:30N 49°50' W 124°32'4 8.3
2017-Oct-09 04:00N 49°48' W 124°37'1 2.6
2017-Oct-09 03:30N 49°49' W 124°36'3 5.9
2017-Oct-09 03:00N 49°50' W 124°32'4 7.4
2017-Oct-09 02:30N 49°48' W 124°37'0 0.4
2017-Oct-09 02:01N 49°48' W 124°37'4 7.8
2017-Oct-09 01:30N 49°50' W 124°32'0 0.0
2017-Oct-09 01:00N 49°50' W 124°32'1 1.9
2017-Oct-09 00:30N 49°50' W 124°33'3 6.6
2017-Oct-09 00:00N 49°48' W 124°37'1 2.8
2017-Oct-08 23:30N 49°49' W 124°36'3 5.8
2017-Oct-08 23:00N 49°50' W 124°32'4 8.3
2017-Oct-08 22:30N 49°48' W 124°37'0 0.1
2017-Oct-08 21:58N 49°48' W 124°37'0 0.0
2017-Oct-08 21:28N 49°48' W 124°37'0 0.0
2017-Oct-08 20:58N 49°48' W 124°37'0 0.1
2017-Oct-08 20:28N 49°48' W 124°37'0 0.0
2017-Oct-08 19:58N 49°48' W 124°37'2 4.1
2017-Oct-08 19:30N 49°49' W 124°35'2 4.9
2017-Oct-08 19:00N 49°50' W 124°32'4 7.6
2017-Oct-08 18:31N 49°48' W 124°37'0 0.8
2017-Oct-08 17:57N 49°48' W 124°37'0 0.0
2017-Oct-08 17:30N 49°48' W 124°37'1 2.8
2017-Oct-08 17:00N 49°49' W 124°36'3 6.0
2017-Oct-08 16:30N 49°50' W 124°32'3 5.3
2017-Oct-08 16:00N 49°49' W 124°36'2 3.1
2017-Oct-08 15:28N 49°48' W 124°37'0 0.1
2017-Oct-08 14:58N 49°48' W 124°37'0 0.0
2017-Oct-08 14:28N 49°48' W 124°37'2 5.3
2017-Oct-08 14:00N 49°49' W 124°34'2 3.6
2017-Oct-08 13:30N 49°50' W 124°32'4 8.3
2017-Oct-08 13:00N 49°48' W 124°37'0 0.1
2017-Oct-08 12:25N 49°48' W 124°37'0 0.0
2017-Oct-08 11:58N 49°48' W 124°37'0 0.0
2017-Oct-08 11:28N 49°48' W 124°37'0 0.0
2017-Oct-08 10:58N 49°48' W 124°37'0 0.0
2017-Oct-08 10:25N 49°48' W 124°37'0 0.0
2017-Oct-08 09:58N 49°48' W 124°37'0 0.0
2017-Oct-08 09:28N 49°48' W 124°37'0 0.0
2017-Oct-08 08:58N 49°48' W 124°37'0 0.0
2017-Oct-08 08:22N 49°48' W 124°37'0 0.0
2017-Oct-08 07:55N 49°48' W 124°37'0 0.0
2017-Oct-08 07:28N 49°48' W 124°37'0 0.0
2017-Oct-08 06:58N 49°48' W 124°37'0 0.0
2017-Oct-08 06:28N 49°48' W 124°37'0 0.1
2017-Oct-08 05:58N 49°48' W 124°37'0 0.1
2017-Oct-08 05:28N 49°48' W 124°37'1 2.5
2017-Oct-08 05:01N 49°49' W 124°36'3 6.3
2017-Oct-08 04:30N 49°50' W 124°32'4 8.3
2017-Oct-08 04:01N 49°48' W 124°37'1 2.8
2017-Oct-08 03:31N 49°49' W 124°36'3 5.7
2017-Oct-08 03:01N 49°50' W 124°32'4 7.1
2017-Oct-08 02:30N 49°48' W 124°37'0 0.9
2017-Oct-08 02:01N 49°48' W 124°37'4 7.7
2017-Oct-08 01:30N 49°50' W 124°32'0 0.0
2017-Oct-08 01:01N 49°50' W 124°32'1 1.7
2017-Oct-08 00:30N 49°50' W 124°33'3 6.8
2017-Oct-08 00:01N 49°48' W 124°37'2 3.1
2017-Oct-07 23:31N 49°49' W 124°36'3 5.5
2017-Oct-07 23:01N 49°50' W 124°32'4 8.3
2017-Oct-07 22:31N 49°48' W 124°37'0 0.1
2017-Oct-07 22:00N 49°48' W 124°37'0 0.0
2017-Oct-07 21:31N 49°48' W 124°37'0 0.1
2017-Oct-07 20:53N 49°48' W 124°37'0 0.0
2017-Oct-07 20:29N 49°48' W 124°37'0 0.0
2017-Oct-07 20:00N 49°48' W 124°37'4 8.4
2017-Oct-07 19:31N 49°50' W 124°32'0 0.1
2017-Oct-07 19:01N 49°50' W 124°32'4 7.3
2017-Oct-07 18:30N 49°48' W 124°37'1 1.2
2017-Oct-07 17:58N 49°48' W 124°37'0 0.0
2017-Oct-07 17:28N 49°48' W 124°37'0 0.1
2017-Oct-07 17:00N 49°48' W 124°37'4 8.2
2017-Oct-07 16:30N 49°50' W 124°32'2 3.7
2017-Oct-07 16:01N 49°49' W 124°35'2 4.6
2017-Oct-07 15:30N 49°48' W 124°37'0 0.0
2017-Oct-07 15:00N 49°48' W 124°37'0 0.1
2017-Oct-07 14:30N 49°48' W 124°37'3 5.2
2017-Oct-07 14:01N 49°49' W 124°34'2 3.4
2017-Oct-07 13:31N 49°50' W 124°32'4 8.3
2017-Oct-07 13:01N 49°48' W 124°37'0 0.1
2017-Oct-07 12:31N 49°48' W 124°37'0 0.0
2017-Oct-07 11:59N 49°48' W 124°37'0 0.0
2017-Oct-07 11:29N 49°48' W 124°37'0 0.0
2017-Oct-07 10:56N 49°48' W 124°37'0 0.0
2017-Oct-07 10:29N 49°48' W 124°37'0 0.0
2017-Oct-07 09:59N 49°48' W 124°37'  
Track history (hours):
 
Tides and Currents Weather Stations Pressure Air Temp Water Temp Dewpoint Dewpoint Depression Visibility Wind Speed Wind Dir Waves Ship Positions

North Island Princes

Last reported at 2017-Oct-17 09:59 UTC. Time now 2017-Oct-17 10:12 UTC.
Position N 49°48' W 124°37'.

Length 66 m; draft 3 m.

Type: Passenger vessel. MMSI: 316001242.

Date/timePositionNaut miles runAvg speedWind from/ knotsBaromVisibWave heightAir tempDewpointWater temp
2017-Oct-17 09:59N 49°48' W 124°37'0 0.0
2017-Oct-17 09:23N 49°48' W 124°37'0 0.0
2017-Oct-17 08:59N 49°48' W 124°37'0 0.0
2017-Oct-17 08:26N 49°48' W 124°37'0 0.0
2017-Oct-17 07:59N 49°48' W 124°37'0 0.0
2017-Oct-17 07:26N 49°48' W 124°37'0 0.0
2017-Oct-17 06:56N 49°48' W 124°37'0 0.0
2017-Oct-17 06:29N 49°48' W 124°37'0 0.0
2017-Oct-17 05:59N 49°48' W 124°37'0 0.1
2017-Oct-17 05:29N 49°48' W 124°37'0 0.1
2017-Oct-17 04:59N 49°48' W 124°37'3 7.2
2017-Oct-17 04:30N 49°49' W 124°32'0 0.5
2017-Oct-17 04:01N 49°49' W 124°33'3 6.4
2017-Oct-17 03:30N 49°48' W 124°37'0 0.0
2017-Oct-17 03:00N 49°48' W 124°37'0 0.0
2017-Oct-17 02:30N 49°48' W 124°37'0 0.0
2017-Oct-17 02:00N 49°48' W 124°37'1 2.3
2017-Oct-17 01:30N 49°49' W 124°36'3 6.2
2017-Oct-17 01:00N 49°50' W 124°32'1 2.7
2017-Oct-17 00:30N 49°49' W 124°33'3 6.1
2017-Oct-17 00:00N 49°48' W 124°37'0 0.0
2017-Oct-16 23:30N 49°48' W 124°37'3 6.5
2017-Oct-16 23:00N 49°49' W 124°33'1 1.6
2017-Oct-16 22:30N 49°50' W 124°32'4 7.6
2017-Oct-16 22:01N 49°48' W 124°37'0 0.0
2017-Oct-16 21:30N 49°48' W 124°37'0 0.1
2017-Oct-16 20:58N 49°48' W 124°37'0 0.0
2017-Oct-16 20:28N 49°48' W 124°37'0 0.0
2017-Oct-16 19:58N 49°48' W 124°37'2 4.7
2017-Oct-16 19:30N 49°49' W 124°35'2 4.1
2017-Oct-16 19:00N 49°50' W 124°32'4 7.3
2017-Oct-16 18:30N 49°48' W 124°37'1 1.1
2017-Oct-16 18:00N 49°49' W 124°36'3 6.2
2017-Oct-16 17:30N 49°50' W 124°32'0 0.0
2017-Oct-16 17:00N 49°50' W 124°32'3 5.6
2017-Oct-16 16:30N 49°49' W 124°36'1 1.6
2017-Oct-16 16:01N 49°48' W 124°37'4 7.1
2017-Oct-16 15:30N 49°50' W 124°32'3 5.4
2017-Oct-16 15:00N 49°49' W 124°35'1 1.4
2017-Oct-16 14:00N 49°49' W 124°33'1 2.7
2017-Oct-16 13:31N 49°50' W 124°32'4 8.2
2017-Oct-16 13:00N 49°48' W 124°37'0 0.2
2017-Oct-16 12:30N 49°48' W 124°37'0 0.0
2017-Oct-16 12:00N 49°48' W 124°37'0 0.0
2017-Oct-16 11:30N 49°48' W 124°37'0 0.0
2017-Oct-16 11:00N 49°48' W 124°37'0 0.0
2017-Oct-16 10:30N 49°48' W 124°37'0 0.0
2017-Oct-16 10:00N 49°48' W 124°37'0 0.0
2017-Oct-16 09:30N 49°48' W 124°37'0 0.0
2017-Oct-16 09:00N 49°48' W 124°37'0 0.0
2017-Oct-16 08:30N 49°48' W 124°37'0 0.0
2017-Oct-16 08:00N 49°48' W 124°37'0 0.0
2017-Oct-16 07:30N 49°48' W 124°37'0 0.0
2017-Oct-16 07:00N 49°48' W 124°37'0 0.0
2017-Oct-16 06:24N 49°48' W 124°37'0 0.0
2017-Oct-16 06:00N 49°48' W 124°37'0 0.1
2017-Oct-16 05:30N 49°48' W 124°37'2 4.1
2017-Oct-16 05:00N 49°49' W 124°35'2 4.4
2017-Oct-16 04:30N 49°50' W 124°32'4 8.3
2017-Oct-16 04:01N 49°48' W 124°37'2 3.6
2017-Oct-16 03:31N 49°49' W 124°36'3 5.1
2017-Oct-16 03:00N 49°50' W 124°32'4 7.6
2017-Oct-16 02:30N 49°48' W 124°37'0 0.7
2017-Oct-16 02:00N 49°49' W 124°37'3 6.8
2017-Oct-16 01:30N 49°50' W 124°32'0 0.0
2017-Oct-16 00:55N 49°50' W 124°32'1 3.3
2017-Oct-16 00:31N 49°50' W 124°34'3 6.1
2017-Oct-16 00:00N 49°48' W 124°37'3 5.9
2017-Oct-15 23:30N 49°50' W 124°34'1 2.9
2017-Oct-15 23:00N 49°50' W 124°32'4 8.2
2017-Oct-15 22:30N 49°48' W 124°37'0 0.0
2017-Oct-15 21:58N 49°48' W 124°37'0 0.0
2017-Oct-15 21:28N 49°48' W 124°37'0 0.0
2017-Oct-15 20:58N 49°48' W 124°37'0 0.0
2017-Oct-15 20:25N 49°48' W 124°37'0 0.1
2017-Oct-15 19:58N 49°48' W 124°37'2 3.9
2017-Oct-15 19:30N 49°49' W 124°35'3 5.1
2017-Oct-15 19:01N 49°50' W 124°32'4 7.4
2017-Oct-15 18:31N 49°48' W 124°37'1 1.4
2017-Oct-15 18:01N 49°48' W 124°37'0 0.1
2017-Oct-15 17:30N 49°48' W 124°37'0 0.3
2017-Oct-15 17:00N 49°48' W 124°37'4 8.1
2017-Oct-15 16:30N 49°50' W 124°32'2 3.6
2017-Oct-15 16:01N 49°50' W 124°35'3 5.1
2017-Oct-15 15:30N 49°48' W 124°37'0 0.0
2017-Oct-15 15:00N 49°48' W 124°37'3 2.6
2017-Oct-15 14:00N 49°49' W 124°34'2 3.2
2017-Oct-15 13:31N 49°50' W 124°32'4 8.3
2017-Oct-15 13:00N 49°48' W 124°37'0 0.2
2017-Oct-15 12:30N 49°48' W 124°37'0 0.0
2017-Oct-15 11:59N 49°48' W 124°37'0 0.0
2017-Oct-15 11:26N 49°48' W 124°37'0 0.0
2017-Oct-15 10:59N 49°48' W 124°37'0 0.0
2017-Oct-15 10:29N 49°48' W 124°37'0 0.0
2017-Oct-15 09:59N 49°48' W 124°37'0 0.0
2017-Oct-15 09:29N 49°48' W 124°37'0 0.0
2017-Oct-15 08:59N 49°48' W 124°37'0 0.0
2017-Oct-15 08:29N 49°48' W 124°37'0 0.0
2017-Oct-15 07:59N 49°48' W 124°37'0 0.0
2017-Oct-15 07:29N 49°48' W 124°37'0 0.0
2017-Oct-15 06:53N 49°48' W 124°37'0 0.0
2017-Oct-15 06:29N 49°48' W 124°37'0 0.0
2017-Oct-15 05:59N 49°48' W 124°37'0 0.0
2017-Oct-15 05:29N 49°48' W 124°37'2 3.3
2017-Oct-15 05:00N 49°49' W 124°36'3 5.4
2017-Oct-15 04:30N 49°50' W 124°32'4 8.3
2017-Oct-15 04:00N 49°48' W 124°37'2 4.3
2017-Oct-15 03:30N 49°49' W 124°34'2 4.1
2017-Oct-15 03:01N 49°50' W 124°32'4 7.6
2017-Oct-15 02:30N 49°48' W 124°37'0 1.0
2017-Oct-15 02:00N 49°49' W 124°36'3 6.7
2017-Oct-15 01:30N 49°50' W 124°32'0 0.0
2017-Oct-15 01:00N 49°50' W 124°32'1 2.8
2017-Oct-15 00:30N 49°50' W 124°34'3 5.5
2017-Oct-14 23:58N 49°48' W 124°37'2 3.6
2017-Oct-14 23:30N 49°49' W 124°35'3 5.1
2017-Oct-14 23:00N 49°50' W 124°32'4 8.4
2017-Oct-14 22:30N 49°48' W 124°37'0 0.0
2017-Oct-14 22:00N 49°48' W 124°37'0 0.0
2017-Oct-14 21:30N 49°48' W 124°37'0 0.0
2017-Oct-14 21:00N 49°48' W 124°37'0 0.0
2017-Oct-14 20:30N 49°48' W 124°37'0 0.1
2017-Oct-14 20:00N 49°48' W 124°37'2 3.1
2017-Oct-14 19:30N 49°49' W 124°36'3 5.6
2017-Oct-14 19:00N 49°50' W 124°32'4 7.2
2017-Oct-14 18:30N 49°48' W 124°37'1 1.7
2017-Oct-14 18:00N 49°48' W 124°37'0 0.1
2017-Oct-14 17:31N 49°48' W 124°37'0 0.2
2017-Oct-14 17:01N 49°48' W 124°37'4 8.1
2017-Oct-14 16:30N 49°50' W 124°32'2 4.0
2017-Oct-14 16:00N 49°49' W 124°35'2 4.6
2017-Oct-14 15:31N 49°48' W 124°37'0 0.0
2017-Oct-14 15:00N 49°48' W 124°37'0 0.1
2017-Oct-14 14:30N 49°48' W 124°37'3 5.9
2017-Oct-14 14:00N 49°50' W 124°34'1 2.5
2017-Oct-14 13:31N 49°50' W 124°32'4 8.3
2017-Oct-14 13:01N 49°48' W 124°37'0 0.1
2017-Oct-14 12:30N 49°48' W 124°37'0 0.1
2017-Oct-14 11:57N 49°48' W 124°37'0 0.0
2017-Oct-14 11:27N 49°48' W 124°37'0 0.0
2017-Oct-14 11:00N 49°48' W 124°37'0 0.0
2017-Oct-14 10:30N 49°48' W 124°37'0 0.0
2017-Oct-14 10:00N 49°48' W 124°37'0 0.0
2017-Oct-14 09:30N 49°48' W 124°37'0 0.0
2017-Oct-14 08:57N 49°48' W 124°37'0 0.0
2017-Oct-14 08:30N 49°48' W 124°37'0 0.0
2017-Oct-14 08:00N 49°48' W 124°37'0 0.0
2017-Oct-14 07:27N 49°48' W 124°37'0 0.0
2017-Oct-14 07:00N 49°48' W 124°37'0 0.1
2017-Oct-14 06:30N 49°48' W 124°37'0 0.1
2017-Oct-14 06:00N 49°48' W 124°37'0 0.0
2017-Oct-14 05:30N 49°48' W 124°37'0 0.0
2017-Oct-14 05:00N 49°48' W 124°37'2 4.8
2017-Oct-14 04:30N 49°49' W 124°34'1 2.9
2017-Oct-14 04:00N 49°50' W 124°33'4 7.6
2017-Oct-14 03:30N 49°48' W 124°37'1 1.8
2017-Oct-14 03:01N 49°49' W 124°37'3 6.9
2017-Oct-14 02:31N 49°50' W 124°32'3 6.2
2017-Oct-14 02:01N 49°49' W 124°36'1 2.5
2017-Oct-14 01:30N 49°48' W 124°37'4 6.6
2017-Oct-14 00:52N 49°50' W 124°32'1 2.2
2017-Oct-14 00:29N 49°50' W 124°33'3 6.9
2017-Oct-13 23:59N 49°48' W 124°37'0 0.0
2017-Oct-13 23:20N 49°48' W 124°37'2 5.8
2017-Oct-13 23:00N 49°49' W 124°35'2 4.6
2017-Oct-13 22:30N 49°50' W 124°32'4 8.3
2017-Oct-13 22:01N 49°48' W 124°37'0 0.2
2017-Oct-13 21:30N 49°48' W 124°37'0 0.0
2017-Oct-13 21:00N 49°48' W 124°37'0 0.1
2017-Oct-13 20:27N 49°48' W 124°37'0 0.1
2017-Oct-13 20:00N 49°48' W 124°37'2 3.4
2017-Oct-13 19:31N 49°49' W 124°35'3 5.1
2017-Oct-13 19:00N 49°50' W 124°32'4 7.6
2017-Oct-13 18:31N 49°48' W 124°37'0 0.2
2017-Oct-13 18:00N 49°48' W 124°37'4 7.4
2017-Oct-13 17:30N 49°50' W 124°32'0 0.0
2017-Oct-13 17:00N 49°50' W 124°32'3 6.2
2017-Oct-13 16:30N 49°49' W 124°36'1 2.1
2017-Oct-13 16:01N 49°48' W 124°37'4 8.0
2017-Oct-13 15:30N 49°50' W 124°32'3 6.1
2017-Oct-13 15:00N 49°49' W 124°36'1 2.5
2017-Oct-13 14:30N 49°48' W 124°37'2 5.0
2017-Oct-13 14:00N 49°49' W 124°34'2 3.5
2017-Oct-13 13:31N 49°50' W 124°32'4 8.2
2017-Oct-13 13:01N 49°48' W 124°37'0 0.2
2017-Oct-13 12:30N 49°48' W 124°37'0 0.0
2017-Oct-13 12:00N 49°48' W 124°37'0 0.0
2017-Oct-13 11:30N 49°48' W 124°37'0 0.0
2017-Oct-13 11:00N 49°48' W 124°37'0 0.0
2017-Oct-13 10:30N 49°48' W 124°37'0 0.0
2017-Oct-13 10:00N 49°48' W 124°37'0 0.0
2017-Oct-13 09:27N 49°48' W 124°37'0 0.0
2017-Oct-13 09:00N 49°48' W 124°37'0 0.0
2017-Oct-13 08:27N 49°48' W 124°37'0 0.0
2017-Oct-13 07:57N 49°48' W 124°37'0 0.0
2017-Oct-13 07:30N 49°48' W 124°37'0 0.1
2017-Oct-13 07:00N 49°48' W 124°37'0 0.1
2017-Oct-13 06:30N 49°48' W 124°37'0 0.0
2017-Oct-13 06:00N 49°48' W 124°37'0 0.1
2017-Oct-13 05:30N 49°48' W 124°37'0 0.1
2017-Oct-13 05:00N 49°48' W 124°37'3 6.3
2017-Oct-13 04:30N 49°50' W 124°33'0 0.5
2017-Oct-13 04:00N 49°50' W 124°34'3 5.8
2017-Oct-13 03:30N 49°48' W 124°37'1 1.9
2017-Oct-13 03:00N 49°49' W 124°36'3 6.7
2017-Oct-13 02:30N 49°50' W 124°32'3 6.2
2017-Oct-13 02:00N 49°49' W 124°36'1 2.5
2017-Oct-13 01:30N 49°48' W 124°37'4 8.4
2017-Oct-13 01:01N 49°50' W 124°32'0 0.6
2017-Oct-13 00:30N 49°50' W 124°32'4 7.9
2017-Oct-13 00:01N 49°48' W 124°37'0 0.0
2017-Oct-12 23:28N 49°48' W 124°37'2 4.1
2017-Oct-12 23:00N 49°49' W 124°35'2 4.8
2017-Oct-12 22:30N 49°50' W 124°32'4 8.3
2017-Oct-12 22:00N 49°48' W 124°37'0 0.0
2017-Oct-12 21:25N 49°48' W 124°37'0 0.0
2017-Oct-12 20:58N 49°48' W 124°37'0 0.0
2017-Oct-12 20:25N 49°48' W 124°37'0 0.0
2017-Oct-12 19:55N 49°48' W 124°37'2 6.1
2017-Oct-12 19:30N 49°49' W 124°34'2 3.5
2017-Oct-12 19:01N 49°50' W 124°32'4 7.5
2017-Oct-12 18:31N 49°48' W 124°37'1 1.1
2017-Oct-12 18:00N 49°49' W 124°36'3 6.5
2017-Oct-12 17:30N 49°50' W 124°32'0 0.1
2017-Oct-12 17:00N 49°50' W 124°32'4 8.3
2017-Oct-12 16:30N 49°48' W 124°37'0 0.1
2017-Oct-12 16:01N 49°48' W 124°37'4 8.2
2017-Oct-12 15:30N 49°50' W 124°32'3 5.7
2017-Oct-12 15:00N 49°49' W 124°36'2 3.1
2017-Oct-12 14:30N 49°48' W 124°37'2 4.8
2017-Oct-12 14:00N 49°49' W 124°34'2 3.6
2017-Oct-12 13:30N 49°50' W 124°32'4 8.3
2017-Oct-12 13:00N 49°48' W 124°37'0 0.0
2017-Oct-12 12:30N 49°48' W 124°37'0 0.0
2017-Oct-12 12:00N 49°48' W 124°37'0 0.0
2017-Oct-12 11:30N 49°48' W 124°37'0 0.0
2017-Oct-12 11:00N 49°48' W 124°37'0 0.0
2017-Oct-12 10:30N 49°48' W 124°37'0 0.0
2017-Oct-12 10:00N 49°48' W 124°37'0 0.0
2017-Oct-12 09:30N 49°48' W 124°37'0 0.0
2017-Oct-12 09:00N 49°48' W 124°37'0 0.0
2017-Oct-12 08:30N 49°48' W 124°37'0 0.0
2017-Oct-12 08:00N 49°48' W 124°37'0 0.0
2017-Oct-12 07:30N 49°48' W 124°37'0 0.0
2017-Oct-12 07:00N 49°48' W 124°37'0 0.0
2017-Oct-12 06:30N 49°48' W 124°37'0 0.0
2017-Oct-12 06:00N 49°48' W 124°37'0 0.1
2017-Oct-12 05:30N 49°48' W 124°37'0 0.1
2017-Oct-12 05:00N 49°48' W 124°37'3 6.1
2017-Oct-12 04:30N 49°50' W 124°33'1 1.4
2017-Oct-12 04:00N 49°50' W 124°33'4 7.1
2017-Oct-12 03:29N 49°48' W 124°37'1 1.8
2017-Oct-12 03:00N 49°49' W 124°37'4 7.1
2017-Oct-12 02:30N 49°50' W 124°32'3 6.3
2017-Oct-12 02:00N 49°49' W 124°36'1 2.4
2017-Oct-12 01:30N 49°48' W 124°37'4 8.4
2017-Oct-12 01:00N 49°50' W 124°32'1 1.1
2017-Oct-12 00:30N 49°50' W 124°33'4 7.4
2017-Oct-12 00:00N 49°48' W 124°37'0 0.0
2017-Oct-11 23:29N 49°48' W 124°37'2 3.8
2017-Oct-11 23:00N 49°49' W 124°35'2 4.9
2017-Oct-11 22:30N 49°50' W 124°32'4 8.3
2017-Oct-11 22:00N 49°48' W 124°37'0 0.0
2017-Oct-11 21:29N 49°48' W 124°37'0 0.0
2017-Oct-11 20:59N 49°48' W 124°37'0 0.1
2017-Oct-11 20:29N 49°48' W 124°37'0 0.0
2017-Oct-11 19:59N 49°48' W 124°37'3 5.6
2017-Oct-11 19:30N 49°49' W 124°34'2 3.3
2017-Oct-11 19:00N 49°50' W 124°32'4 8.2
2017-Oct-11 18:30N 49°48' W 124°37'0 0.0
2017-Oct-11 18:00N 49°48' W 124°37'2 3.4
2017-Oct-11 17:30N 49°49' W 124°35'3 5.1
2017-Oct-11 17:00N 49°50' W 124°32'4 0.2
2017-Oct-11 00:01N 49°48' W 124°37'0 0.0
2017-Oct-10 23:30N 49°48' W 124°37'2 4.4
2017-Oct-10 23:00N 49°49' W 124°34'2 4.1
2017-Oct-10 22:30N 49°50' W 124°32'4 8.3
2017-Oct-10 22:00N 49°48' W 124°37'0 0.0
2017-Oct-10 21:30N 49°48' W 124°37'0 0.0
2017-Oct-10 21:00N 49°48' W 124°37'0 0.1
2017-Oct-10 20:27N 49°48' W 124°37'0 0.1
2017-Oct-10 20:00N 49°48' W 124°37'2 3.4
2017-Oct-10 19:31N 49°49' W 124°35'3 5.1
2017-Oct-10 19:00N 49°50' W 124°32'4 7.6
2017-Oct-10 18:31N 49°48' W 124°37'0 0.2
2017-Oct-10 18:01N 49°48' W 124°37'4 7.3
2017-Oct-10 17:30N 49°50' W 124°32'0 0.0
2017-Oct-10 17:01N 49°50' W 124°32'3 6.1
2017-Oct-10 16:30N 49°49' W 124°36'1 2.0
2017-Oct-10 16:00N 49°48' W 124°37'4 7.9
2017-Oct-10 15:30N 49°50' W 124°32'3 6.0
2017-Oct-10 15:00N 49°49' W 124°36'1 1.3
2017-Oct-10 14:01N 49°49' W 124°34'2 3.4
2017-Oct-10 13:30N 49°50' W 124°32'4 8.3
2017-Oct-10 13:01N 49°48' W 124°37'0 0.1
2017-Oct-10 12:20N 49°48' W 124°37'0 0.0
2017-Oct-10 11:59N 49°48' W 124°37'0 0.0
2017-Oct-10 11:29N 49°48' W 124°37'0 0.0
2017-Oct-10 10:59N 49°48' W 124°37'0 0.0
2017-Oct-10 10:29N 49°48' W 124°37'0 0.0
2017-Oct-10 09:59N 49°48' W 124°37'0 0.0
2017-Oct-10 09:26N 49°48' W 124°37'0 0.1
2017-Oct-10 08:59N 49°48' W 124°37'0 0.1
2017-Oct-10 08:26N 49°48' W 124°37'0 0.0
2017-Oct-10 07:59N 49°48' W 124°37'0 0.0
2017-Oct-10 07:26N 49°48' W 124°37'0 0.0
2017-Oct-10 06:56N 49°48' W 124°37'0 0.0
2017-Oct-10 06:29N 49°48' W 124°37'0 0.0
2017-Oct-10 05:59N 49°48' W 124°37'0 0.0
2017-Oct-10 05:20N 49°48' W 124°37'0 0.0
2017-Oct-10 04:59N 49°48' W 124°37'2 4.5
2017-Oct-10 04:30N 49°49' W 124°35'2 4.3
2017-Oct-10 04:00N 49°50' W 124°32'4 8.3
2017-Oct-10 03:30N 49°48' W 124°37'1 1.1
2017-Oct-10 03:00N 49°48' W 124°37'4 7.7
2017-Oct-10 02:30N 49°50' W 124°32'3 5.3
2017-Oct-10 02:00N 49°49' W 124°36'2 3.5
2017-Oct-10 01:30N 49°48' W 124°37'4 8.0
2017-Oct-10 01:00N 49°50' W 124°32'0 0.4
2017-Oct-10 00:30N 49°50' W 124°32'4 8.3
2017-Oct-10 00:00N 49°48' W 124°37'0 0.0
2017-Oct-09 23:30N 49°48' W 124°37'1 2.8
2017-Oct-09 23:00N 49°49' W 124°36'3 6.0
2017-Oct-09 22:30N 49°50' W 124°32'4 8.3
2017-Oct-09 22:00N 49°48' W 124°37'0 0.1
2017-Oct-09 21:30N 49°48' W 124°37'0 0.0
2017-Oct-09 20:56N 49°48' W 124°37'0 0.1
2017-Oct-09 20:26N 49°48' W 124°37'0 0.0
2017-Oct-09 19:56N 49°48' W 124°37'2 5.9
2017-Oct-09 19:31N 49°49' W 124°34'2 3.2
2017-Oct-09 19:00N 49°50' W 124°32'3 6.8
2017-Oct-09 18:30N 49°48' W 124°37'0 0.2
2017-Oct-09 18:01N 49°48' W 124°37'4 7.2
2017-Oct-09 17:30N 49°50' W 124°32'0 0.0
2017-Oct-09 17:00N 49°50' W 124°32'3 5.7
2017-Oct-09 16:31N 49°49' W 124°36'1 2.8
2017-Oct-09 16:00N 49°48' W 124°37'4 8.2
2017-Oct-09 15:30N 49°50' W 124°32'3 5.4
2017-Oct-09 15:00N 49°49' W 124°36'2 3.2
2017-Oct-09 14:30N 49°48' W 124°37'2 4.6
2017-Oct-09 14:01N 49°49' W 124°35'2 3.9
2017-Oct-09 13:30N 49°50' W 124°32'4 8.3
2017-Oct-09 13:00N 49°48' W 124°37'0 0.2
2017-Oct-09 12:30N 49°48' W 124°37'0 0.0
2017-Oct-09 12:01N 49°48' W 124°37'0 0.0
2017-Oct-09 11:31N 49°48' W 124°37'0 0.0
2017-Oct-09 11:01N 49°48' W 124°37'0 0.0
2017-Oct-09 10:31N 49°48' W 124°37'0 0.0
2017-Oct-09 10:01N 49°48' W 124°37'0 0.0
2017-Oct-09 09:31N 49°48' W 124°37'0 0.0
2017-Oct-09 09:01N 49°48' W 124°37'0 0.0
2017-Oct-09 08:25N 49°48' W 124°37'0 0.0
2017-Oct-09 08:01N 49°48' W 124°37'0 0.0
2017-Oct-09 07:28N 49°48' W 124°37'0 0.1
2017-Oct-09 06:58N 49°48' W 124°37'0 0.0
2017-Oct-09 06:31N 49°48' W 124°37'0 0.0
2017-Oct-09 06:01N 49°48' W 124°37'0 0.1
2017-Oct-09 05:28N 49°48' W 124°37'1 2.6
2017-Oct-09 05:00N 49°49' W 124°36'3 6.4
2017-Oct-09 04:30N 49°50' W 124°32'4 8.3
2017-Oct-09 04:00N 49°48' W 124°37'1 2.6
2017-Oct-09 03:30N 49°49' W 124°36'3 5.9
2017-Oct-09 03:00N 49°50' W 124°32'4 7.4
2017-Oct-09 02:30N 49°48' W 124°37'0 0.4
2017-Oct-09 02:01N 49°48' W 124°37'4 7.8
2017-Oct-09 01:30N 49°50' W 124°32'0 0.0
2017-Oct-09 01:00N 49°50' W 124°32'1 1.9
2017-Oct-09 00:30N 49°50' W 124°33'3 6.6
2017-Oct-09 00:00N 49°48' W 124°37'1 2.8
2017-Oct-08 23:30N 49°49' W 124°36'3 5.8
2017-Oct-08 23:00N 49°50' W 124°32'4 8.3
2017-Oct-08 22:30N 49°48' W 124°37'0 0.1
2017-Oct-08 21:58N 49°48' W 124°37'0 0.0
2017-Oct-08 21:28N 49°48' W 124°37'0 0.0
2017-Oct-08 20:58N 49°48' W 124°37'0 0.1
2017-Oct-08 20:28N 49°48' W 124°37'0 0.0
2017-Oct-08 19:58N 49°48' W 124°37'2 4.1
2017-Oct-08 19:30N 49°49' W 124°35'2 4.9
2017-Oct-08 19:00N 49°50' W 124°32'4 7.6
2017-Oct-08 18:31N 49°48' W 124°37'0 0.8
2017-Oct-08 17:57N 49°48' W 124°37'0 0.0
2017-Oct-08 17:30N 49°48' W 124°37'1 2.8
2017-Oct-08 17:00N 49°49' W 124°36'3 6.0
2017-Oct-08 16:30N 49°50' W 124°32'3 5.3
2017-Oct-08 16:00N 49°49' W 124°36'2 3.1
2017-Oct-08 15:28N 49°48' W 124°37'0 0.1
2017-Oct-08 14:58N 49°48' W 124°37'0 0.0
2017-Oct-08 14:28N 49°48' W 124°37'2 5.3
2017-Oct-08 14:00N 49°49' W 124°34'2 3.6
2017-Oct-08 13:30N 49°50' W 124°32'4 8.3
2017-Oct-08 13:00N 49°48' W 124°37'0 0.1
2017-Oct-08 12:25N 49°48' W 124°37'0 0.0
2017-Oct-08 11:58N 49°48' W 124°37'0 0.0
2017-Oct-08 11:28N 49°48' W 124°37'0 0.0
2017-Oct-08 10:58N 49°48' W 124°37'0 0.0
2017-Oct-08 10:25N 49°48' W 124°37'0 0.0
2017-Oct-08 09:58N 49°48' W 124°37'0 0.0
2017-Oct-08 09:28N 49°48' W 124°37'0 0.0
2017-Oct-08 08:58N 49°48' W 124°37'0 0.0
2017-Oct-08 08:22N 49°48' W 124°37'0 0.0
2017-Oct-08 07:55N 49°48' W 124°37'0 0.0
2017-Oct-08 07:28N 49°48' W 124°37'0 0.0
2017-Oct-08 06:58N 49°48' W 124°37'0 0.0
2017-Oct-08 06:28N 49°48' W 124°37'0 0.1
2017-Oct-08 05:58N 49°48' W 124°37'0 0.1
2017-Oct-08 05:28N 49°48' W 124°37'1 2.5
2017-Oct-08 05:01N 49°49' W 124°36'3 6.3
2017-Oct-08 04:30N 49°50' W 124°32'4 8.3
2017-Oct-08 04:01N 49°48' W 124°37'1 2.8
2017-Oct-08 03:31N 49°49' W 124°36'3 5.7
2017-Oct-08 03:01N 49°50' W 124°32'4 7.1
2017-Oct-08 02:30N 49°48' W 124°37'0 0.9
2017-Oct-08 02:01N 49°48' W 124°37'4 7.7
2017-Oct-08 01:30N 49°50' W 124°32'0 0.0
2017-Oct-08 01:01N 49°50' W 124°32'1 1.7
2017-Oct-08 00:30N 49°50' W 124°33'3 6.8
2017-Oct-08 00:01N 49°48' W 124°37'2 3.1
2017-Oct-07 23:31N 49°49' W 124°36'3 5.5
2017-Oct-07 23:01N 49°50' W 124°32'4 8.3
2017-Oct-07 22:31N 49°48' W 124°37'0 0.1
2017-Oct-07 22:00N 49°48' W 124°37'0 0.0
2017-Oct-07 21:31N 49°48' W 124°37'0 0.1
2017-Oct-07 20:53N 49°48' W 124°37'0 0.0
2017-Oct-07 20:29N 49°48' W 124°37'0 0.0
2017-Oct-07 20:00N 49°48' W 124°37'4 8.4
2017-Oct-07 19:31N 49°50' W 124°32'0 0.1
2017-Oct-07 19:01N 49°50' W 124°32'4 7.3
2017-Oct-07 18:30N 49°48' W 124°37'1 1.2
2017-Oct-07 17:58N 49°48' W 124°37'0 0.0
2017-Oct-07 17:28N 49°48' W 124°37'0 0.1
2017-Oct-07 17:00N 49°48' W 124°37'4 8.2
2017-Oct-07 16:30N 49°50' W 124°32'2 3.7
2017-Oct-07 16:01N 49°49' W 124°35'2 4.6
2017-Oct-07 15:30N 49°48' W 124°37'0 0.0
2017-Oct-07 15:00N 49°48' W 124°37'0 0.1
2017-Oct-07 14:30N 49°48' W 124°37'3 5.2
2017-Oct-07 14:01N 49°49' W 124°34'2 3.4
2017-Oct-07 13:31N 49°50' W 124°32'4 8.3
2017-Oct-07 13:01N 49°48' W 124°37'0 0.1
2017-Oct-07 12:31N 49°48' W 124°37'0 0.0
2017-Oct-07 11:59N 49°48' W 124°37'0 0.0
2017-Oct-07 11:29N 49°48' W 124°37'0 0.0
2017-Oct-07 10:56N 49°48' W 124°37'0 0.0
2017-Oct-07 10:29N 49°48' W 124°37'0 0.0
2017-Oct-07 09:59N 49°48' W 124°37'  

Dump ship's entire track history